sensor_id;sensor_type;location;lat;lon;timestamp;P1;durP1;ratioP1;P2;durP2;ratioP2
63089;SDS011;49174;43.198;27.824;2022-07-30T00:02:13;12.73;;;9.10;;
63089;SDS011;49174;43.198;27.824;2022-07-30T00:04:40;13.43;;;8.38;;
63089;SDS011;49174;43.198;27.824;2022-07-30T00:07:06;10.77;;;9.05;;
63089;SDS011;49174;43.198;27.824;2022-07-30T00:09:32;11.45;;;7.97;;
63089;SDS011;49174;43.198;27.824;2022-07-30T00:11:59;13.93;;;9.25;;
63089;SDS011;49174;43.198;27.824;2022-07-30T00:14:24;15.02;;;9.35;;
63089;SDS011;49174;43.198;27.824;2022-07-30T00:16:50;16.98;;;8.90;;
63089;SDS011;49174;43.198;27.824;2022-07-30T00:19:16;13.43;;;9.20;;
63089;SDS011;49174;43.198;27.824;2022-07-30T00:21:42;11.43;;;8.73;;
63089;SDS011;49174;43.198;27.824;2022-07-30T00:24:07;14.30;;;9.35;;
63089;SDS011;49174;43.198;27.824;2022-07-30T00:26:33;14.52;;;9.73;;
63089;SDS011;49174;43.198;27.824;2022-07-30T00:28:58;14.10;;;8.32;;
63089;SDS011;49174;43.198;27.824;2022-07-30T00:31:24;14.90;;;9.73;;
63089;SDS011;49174;43.198;27.824;2022-07-30T00:33:50;13.63;;;9.05;;
63089;SDS011;49174;43.198;27.824;2022-07-30T00:36:15;12.63;;;9.52;;
63089;SDS011;49174;43.198;27.824;2022-07-30T00:38:41;11.75;;;10.07;;
63089;SDS011;49174;43.198;27.824;2022-07-30T00:41:07;18.02;;;10.68;;
63089;SDS011;49174;43.198;27.824;2022-07-30T00:43:32;13.65;;;9.15;;
63089;SDS011;49174;43.198;27.824;2022-07-30T00:45:58;13.65;;;10.02;;
63089;SDS011;49174;43.198;27.824;2022-07-30T00:48:24;12.35;;;9.88;;
63089;SDS011;49174;43.198;27.824;2022-07-30T00:50:49;11.70;;;9.77;;
63089;SDS011;49174;43.198;27.824;2022-07-30T00:53:16;11.05;;;8.95;;
63089;SDS011;49174;43.198;27.824;2022-07-30T00:55:41;11.85;;;8.80;;
63089;SDS011;49174;43.198;27.824;2022-07-30T00:58:07;10.95;;;9.43;;
63089;SDS011;49174;43.198;27.824;2022-07-30T01:00:32;12.90;;;8.98;;
63089;SDS011;49174;43.198;27.824;2022-07-30T01:02:58;12.43;;;8.50;;
63089;SDS011;49174;43.198;27.824;2022-07-30T01:05:23;12.30;;;9.65;;
63089;SDS011;49174;43.198;27.824;2022-07-30T01:07:49;14.18;;;9.38;;
63089;SDS011;49174;43.198;27.824;2022-07-30T01:10:15;13.80;;;9.75;;
63089;SDS011;49174;43.198;27.824;2022-07-30T01:12:41;18.77;;;11.05;;
63089;SDS011;49174;43.198;27.824;2022-07-30T01:15:08;17.67;;;11.90;;
63089;SDS011;49174;43.198;27.824;2022-07-30T01:17:35;14.30;;;12.18;;
63089;SDS011;49174;43.198;27.824;2022-07-30T01:20:06;15.00;;;11.45;;
63089;SDS011;49174;43.198;27.824;2022-07-30T01:22:42;16.83;;;13.70;;
63089;SDS011;49174;43.198;27.824;2022-07-30T01:27:46;17.42;;;14.05;;
63089;SDS011;49174;43.198;27.824;2022-07-30T01:30:17;19.42;;;15.00;;
63089;SDS011;49174;43.198;27.824;2022-07-30T01:32:45;18.13;;;14.88;;
63089;SDS011;49174;43.198;27.824;2022-07-30T01:35:13;19.30;;;15.38;;
63089;SDS011;49174;43.198;27.824;2022-07-30T01:37:42;19.73;;;15.45;;
63089;SDS011;49174;43.198;27.824;2022-07-30T01:40:09;18.85;;;15.15;;
63089;SDS011;49174;43.198;27.824;2022-07-30T01:42:36;18.95;;;16.17;;
63089;SDS011;49174;43.198;27.824;2022-07-30T01:45:04;15.88;;;14.20;;
63089;SDS011;49174;43.198;27.824;2022-07-30T01:47:32;17.15;;;14.30;;
63089;SDS011;49174;43.198;27.824;2022-07-30T01:49:59;17.73;;;14.63;;
63089;SDS011;49174;43.198;27.824;2022-07-30T01:52:26;16.20;;;14.50;;
63089;SDS011;49174;43.198;27.824;2022-07-30T01:54:55;19.48;;;15.70;;
63089;SDS011;49174;43.198;27.824;2022-07-30T01:57:23;16.58;;;13.77;;
63089;SDS011;49174;43.198;27.824;2022-07-30T01:59:51;18.58;;;15.48;;
63089;SDS011;49174;43.198;27.824;2022-07-30T02:02:22;16.75;;;13.93;;
63089;SDS011;49174;43.198;27.824;2022-07-30T02:04:47;16.65;;;14.77;;
63089;SDS011;49174;43.198;27.824;2022-07-30T02:07:23;18.30;;;14.80;;
63089;SDS011;49174;43.198;27.824;2022-07-30T02:09:58;19.88;;;15.85;;
63089;SDS011;49174;43.198;27.824;2022-07-30T02:12:30;18.17;;;15.20;;
63089;SDS011;49174;43.198;27.824;2022-07-30T02:17:36;19.55;;;15.73;;
63089;SDS011;49174;43.198;27.824;2022-07-30T02:20:23;19.27;;;15.80;;
63089;SDS011;49174;43.198;27.824;2022-07-30T02:22:51;16.50;;;13.65;;
63089;SDS011;49174;43.198;27.824;2022-07-30T02:25:21;15.68;;;14.05;;
63089;SDS011;49174;43.198;27.824;2022-07-30T02:27:49;14.57;;;13.07;;
63089;SDS011;49174;43.198;27.824;2022-07-30T02:30:18;16.20;;;13.45;;
63089;SDS011;49174;43.198;27.824;2022-07-30T02:32:49;16.15;;;13.82;;
63089;SDS011;49174;43.198;27.824;2022-07-30T02:35:19;16.00;;;14.30;;
63089;SDS011;49174;43.198;27.824;2022-07-30T02:37:48;16.75;;;13.07;;
63089;SDS011;49174;43.198;27.824;2022-07-30T02:40:18;18.38;;;15.25;;
63089;SDS011;49174;43.198;27.824;2022-07-30T02:42:46;16.95;;;13.65;;
63089;SDS011;49174;43.198;27.824;2022-07-30T02:45:15;18.95;;;14.18;;
63089;SDS011;49174;43.198;27.824;2022-07-30T02:47:43;17.63;;;14.13;;
63089;SDS011;49174;43.198;27.824;2022-07-30T02:50:12;16.58;;;13.45;;
63089;SDS011;49174;43.198;27.824;2022-07-30T02:52:40;16.90;;;13.35;;
63089;SDS011;49174;43.198;27.824;2022-07-30T02:55:07;15.77;;;13.48;;
63089;SDS011;49174;43.198;27.824;2022-07-30T02:57:36;15.82;;;13.35;;
63089;SDS011;49174;43.198;27.824;2022-07-30T03:00:06;17.23;;;14.02;;
63089;SDS011;49174;43.198;27.824;2022-07-30T03:02:33;16.95;;;14.50;;
63089;SDS011;49174;43.198;27.824;2022-07-30T03:05:00;17.40;;;14.68;;
63089;SDS011;49174;43.198;27.824;2022-07-30T03:07:28;18.70;;;15.63;;
63089;SDS011;49174;43.198;27.824;2022-07-30T03:09:55;19.17;;;15.57;;
63089;SDS011;49174;43.198;27.824;2022-07-30T03:12:21;20.10;;;15.57;;
63089;SDS011;49174;43.198;27.824;2022-07-30T03:14:48;17.00;;;14.20;;
63089;SDS011;49174;43.198;27.824;2022-07-30T03:17:16;16.75;;;14.00;;
63089;SDS011;49174;43.198;27.824;2022-07-30T03:19:44;19.52;;;15.73;;
63089;SDS011;49174;43.198;27.824;2022-07-30T03:22:12;18.70;;;15.57;;
63089;SDS011;49174;43.198;27.824;2022-07-30T03:24:39;20.83;;;15.55;;
63089;SDS011;49174;43.198;27.824;2022-07-30T03:27:08;18.27;;;15.38;;
63089;SDS011;49174;43.198;27.824;2022-07-30T03:29:34;17.90;;;15.98;;
63089;SDS011;49174;43.198;27.824;2022-07-30T03:32:04;21.48;;;18.17;;
63089;SDS011;49174;43.198;27.824;2022-07-30T03:34:31;22.13;;;17.10;;
63089;SDS011;49174;43.198;27.824;2022-07-30T03:36:59;25.33;;;18.45;;
63089;SDS011;49174;43.198;27.824;2022-07-30T03:39:27;23.52;;;18.33;;
63089;SDS011;49174;43.198;27.824;2022-07-30T03:41:53;24.33;;;19.15;;
63089;SDS011;49174;43.198;27.824;2022-07-30T03:44:20;21.67;;;18.80;;
63089;SDS011;49174;43.198;27.824;2022-07-30T03:46:47;28.40;;;19.67;;
63089;SDS011;49174;43.198;27.824;2022-07-30T03:49:15;23.27;;;19.55;;
63089;SDS011;49174;43.198;27.824;2022-07-30T03:51:41;25.33;;;20.00;;
63089;SDS011;49174;43.198;27.824;2022-07-30T03:54:08;24.77;;;20.38;;
63089;SDS011;49174;43.198;27.824;2022-07-30T03:56:35;28.25;;;22.30;;
63089;SDS011;49174;43.198;27.824;2022-07-30T03:59:02;22.83;;;20.25;;
63089;SDS011;49174;43.198;27.824;2022-07-30T04:01:28;24.70;;;19.00;;
63089;SDS011;49174;43.198;27.824;2022-07-30T04:03:54;23.33;;;20.55;;
63089;SDS011;49174;43.198;27.824;2022-07-30T04:06:20;29.13;;;21.05;;
63089;SDS011;49174;43.198;27.824;2022-07-30T04:08:45;26.55;;;20.55;;
63089;SDS011;49174;43.198;27.824;2022-07-30T04:11:11;29.13;;;21.33;;
63089;SDS011;49174;43.198;27.824;2022-07-30T04:13:36;25.55;;;20.42;;
63089;SDS011;49174;43.198;27.824;2022-07-30T04:18:34;24.00;;;20.15;;
63089;SDS011;49174;43.198;27.824;2022-07-30T04:21:11;27.27;;;21.98;;
63089;SDS011;49174;43.198;27.824;2022-07-30T04:23:40;27.27;;;20.08;;
63089;SDS011;49174;43.198;27.824;2022-07-30T04:26:07;28.75;;;20.35;;
63089;SDS011;49174;43.198;27.824;2022-07-30T04:28:34;23.38;;;20.73;;
63089;SDS011;49174;43.198;27.824;2022-07-30T04:31:01;27.73;;;21.10;;
63089;SDS011;49174;43.198;27.824;2022-07-30T04:33:28;23.05;;;20.38;;
63089;SDS011;49174;43.198;27.824;2022-07-30T04:35:53;24.90;;;20.58;;
63089;SDS011;49174;43.198;27.824;2022-07-30T04:38:19;23.10;;;19.83;;
63089;SDS011;49174;43.198;27.824;2022-07-30T04:40:45;30.15;;;20.02;;
63089;SDS011;49174;43.198;27.824;2022-07-30T04:43:11;23.13;;;20.45;;
63089;SDS011;49174;43.198;27.824;2022-07-30T04:45:37;23.60;;;19.83;;
63089;SDS011;49174;43.198;27.824;2022-07-30T04:48:04;26.30;;;21.17;;
63089;SDS011;49174;43.198;27.824;2022-07-30T04:50:30;32.35;;;23.60;;
63089;SDS011;49174;43.198;27.824;2022-07-30T04:52:59;25.67;;;22.48;;
63089;SDS011;49174;43.198;27.824;2022-07-30T04:55:41;25.80;;;21.25;;
63089;SDS011;49174;43.198;27.824;2022-07-30T04:58:09;28.10;;;21.08;;
63089;SDS011;49174;43.198;27.824;2022-07-30T05:00:37;24.83;;;20.08;;
63089;SDS011;49174;43.198;27.824;2022-07-30T05:03:04;28.17;;;19.15;;
63089;SDS011;49174;43.198;27.824;2022-07-30T05:05:32;22.15;;;18.15;;
63089;SDS011;49174;43.198;27.824;2022-07-30T05:07:59;20.88;;;18.30;;
63089;SDS011;49174;43.198;27.824;2022-07-30T05:10:26;22.60;;;17.83;;
63089;SDS011;49174;43.198;27.824;2022-07-30T05:12:52;24.30;;;19.77;;
63089;SDS011;49174;43.198;27.824;2022-07-30T05:15:17;24.05;;;19.13;;
63089;SDS011;49174;43.198;27.824;2022-07-30T05:17:44;22.33;;;18.30;;
63089;SDS011;49174;43.198;27.824;2022-07-30T05:20:10;27.60;;;24.58;;
63089;SDS011;49174;43.198;27.824;2022-07-30T05:22:37;40.38;;;33.53;;
63089;SDS011;49174;43.198;27.824;2022-07-30T05:25:03;26.65;;;22.17;;
63089;SDS011;49174;43.198;27.824;2022-07-30T05:27:28;24.67;;;21.92;;
63089;SDS011;49174;43.198;27.824;2022-07-30T05:29:54;26.65;;;21.65;;
63089;SDS011;49174;43.198;27.824;2022-07-30T05:32:19;27.02;;;20.48;;
63089;SDS011;49174;43.198;27.824;2022-07-30T05:34:45;21.73;;;18.90;;
63089;SDS011;49174;43.198;27.824;2022-07-30T05:37:11;21.67;;;19.08;;
63089;SDS011;49174;43.198;27.824;2022-07-30T05:39:37;24.20;;;18.77;;
63089;SDS011;49174;43.198;27.824;2022-07-30T05:42:03;22.60;;;18.30;;
63089;SDS011;49174;43.198;27.824;2022-07-30T05:44:29;17.88;;;15.98;;
63089;SDS011;49174;43.198;27.824;2022-07-30T05:46:54;18.95;;;15.25;;
63089;SDS011;49174;43.198;27.824;2022-07-30T05:49:20;20.13;;;16.55;;
63089;SDS011;49174;43.198;27.824;2022-07-30T05:51:46;17.25;;;14.10;;
63089;SDS011;49174;43.198;27.824;2022-07-30T05:54:11;23.08;;;16.52;;
63089;SDS011;49174;43.198;27.824;2022-07-30T05:56:37;21.50;;;17.45;;
63089;SDS011;49174;43.198;27.824;2022-07-30T05:59:04;18.33;;;14.60;;
63089;SDS011;49174;43.198;27.824;2022-07-30T06:01:30;15.30;;;13.00;;
63089;SDS011;49174;43.198;27.824;2022-07-30T06:03:56;38.70;;;31.17;;
63089;SDS011;49174;43.198;27.824;2022-07-30T06:06:21;42.25;;;36.03;;
63089;SDS011;49174;43.198;27.824;2022-07-30T06:08:47;16.48;;;13.95;;
63089;SDS011;49174;43.198;27.824;2022-07-30T06:11:14;15.00;;;12.43;;
63089;SDS011;49174;43.198;27.824;2022-07-30T06:13:40;13.43;;;11.45;;
63089;SDS011;49174;43.198;27.824;2022-07-30T06:16:05;13.23;;;11.13;;
63089;SDS011;49174;43.198;27.824;2022-07-30T06:18:31;17.52;;;11.70;;
63089;SDS011;49174;43.198;27.824;2022-07-30T06:20:57;16.33;;;13.27;;
63089;SDS011;49174;43.198;27.824;2022-07-30T06:36:49;14.45;;;10.70;;
63089;SDS011;49174;43.198;27.824;2022-07-30T06:39:15;11.60;;;10.18;;
63089;SDS011;49174;43.198;27.824;2022-07-30T06:41:40;11.68;;;10.20;;
63089;SDS011;49174;43.198;27.824;2022-07-30T06:44:06;12.90;;;10.00;;
63089;SDS011;49174;43.198;27.824;2022-07-30T06:46:32;12.63;;;10.30;;
63089;SDS011;49174;43.198;27.824;2022-07-30T06:48:58;16.33;;;10.63;;
63089;SDS011;49174;43.198;27.824;2022-07-30T06:51:23;12.40;;;10.10;;
63089;SDS011;49174;43.198;27.824;2022-07-30T06:53:49;13.77;;;10.90;;
63089;SDS011;49174;43.198;27.824;2022-07-30T06:56:14;12.48;;;10.48;;
63089;SDS011;49174;43.198;27.824;2022-07-30T06:58:40;14.00;;;10.98;;
63089;SDS011;49174;43.198;27.824;2022-07-30T07:01:06;11.20;;;10.07;;
63089;SDS011;49174;43.198;27.824;2022-07-30T07:03:31;12.95;;;10.88;;
63089;SDS011;49174;43.198;27.824;2022-07-30T07:05:57;12.75;;;10.98;;
63089;SDS011;49174;43.198;27.824;2022-07-30T07:08:22;13.85;;;10.98;;
63089;SDS011;49174;43.198;27.824;2022-07-30T07:10:48;14.20;;;11.23;;
63089;SDS011;49174;43.198;27.824;2022-07-30T07:13:14;13.80;;;11.43;;
63089;SDS011;49174;43.198;27.824;2022-07-30T07:15:39;11.95;;;9.98;;
63089;SDS011;49174;43.198;27.824;2022-07-30T07:18:05;14.27;;;10.50;;
63089;SDS011;49174;43.198;27.824;2022-07-30T07:20:31;17.25;;;11.13;;
63089;SDS011;49174;43.198;27.824;2022-07-30T07:22:57;13.13;;;10.27;;
63089;SDS011;49174;43.198;27.824;2022-07-30T07:25:23;12.43;;;9.00;;
63089;SDS011;49174;43.198;27.824;2022-07-30T07:27:49;11.05;;;8.60;;
63089;SDS011;49174;43.198;27.824;2022-07-30T07:30:14;9.93;;;8.00;;
63089;SDS011;49174;43.198;27.824;2022-07-30T07:32:42;9.00;;;8.02;;
63089;SDS011;49174;43.198;27.824;2022-07-30T07:35:08;7.68;;;6.97;;
63089;SDS011;49174;43.198;27.824;2022-07-30T07:37:33;8.13;;;7.00;;
63089;SDS011;49174;43.198;27.824;2022-07-30T07:39:59;7.50;;;6.70;;
63089;SDS011;49174;43.198;27.824;2022-07-30T07:42:25;6.97;;;6.28;;
63089;SDS011;49174;43.198;27.824;2022-07-30T07:44:50;8.05;;;6.30;;
63089;SDS011;49174;43.198;27.824;2022-07-30T07:47:16;6.93;;;5.90;;
63089;SDS011;49174;43.198;27.824;2022-07-30T07:49:41;6.53;;;5.78;;
63089;SDS011;49174;43.198;27.824;2022-07-30T08:05:00;6.25;;;5.45;;
63089;SDS011;49174;43.198;27.824;2022-07-30T08:07:27;7.50;;;5.47;;
63089;SDS011;49174;43.198;27.824;2022-07-30T08:09:53;7.60;;;6.60;;
63089;SDS011;49174;43.198;27.824;2022-07-30T08:12:19;12.95;;;7.70;;
63089;SDS011;49174;43.198;27.824;2022-07-30T08:14:44;11.95;;;7.18;;
63089;SDS011;49174;43.198;27.824;2022-07-30T08:17:10;10.57;;;7.25;;
63089;SDS011;49174;43.198;27.824;2022-07-30T08:19:36;12.40;;;6.95;;
63089;SDS011;49174;43.198;27.824;2022-07-30T08:22:01;8.65;;;6.80;;
63089;SDS011;49174;43.198;27.824;2022-07-30T08:24:27;13.43;;;6.75;;
63089;SDS011;49174;43.198;27.824;2022-07-30T08:26:52;13.60;;;6.43;;
63089;SDS011;49174;43.198;27.824;2022-07-30T08:29:18;9.35;;;6.57;;
63089;SDS011;49174;43.198;27.824;2022-07-30T08:31:43;5.95;;;4.95;;
63089;SDS011;49174;43.198;27.824;2022-07-30T08:34:09;9.77;;;5.50;;
63089;SDS011;49174;43.198;27.824;2022-07-30T08:36:34;9.10;;;5.72;;
63089;SDS011;49174;43.198;27.824;2022-07-30T08:39:00;9.07;;;5.30;;
63089;SDS011;49174;43.198;27.824;2022-07-30T08:41:26;5.93;;;4.85;;
63089;SDS011;49174;43.198;27.824;2022-07-30T08:43:52;7.05;;;5.55;;
63089;SDS011;49174;43.198;27.824;2022-07-30T08:46:20;13.13;;;5.72;;
63089;SDS011;49174;43.198;27.824;2022-07-30T08:48:50;8.75;;;4.93;;
63089;SDS011;49174;43.198;27.824;2022-07-30T08:51:16;7.38;;;5.80;;
63089;SDS011;49174;43.198;27.824;2022-07-30T08:53:43;7.63;;;4.30;;
63089;SDS011;49174;43.198;27.824;2022-07-30T08:56:10;7.05;;;4.82;;
63089;SDS011;49174;43.198;27.824;2022-07-30T08:58:37;7.57;;;4.88;;
63089;SDS011;49174;43.198;27.824;2022-07-30T09:01:03;8.15;;;4.40;;
63089;SDS011;49174;43.198;27.824;2022-07-30T09:03:29;6.95;;;4.63;;
63089;SDS011;49174;43.198;27.824;2022-07-30T09:05:55;7.90;;;4.25;;
63089;SDS011;49174;43.198;27.824;2022-07-30T09:08:21;8.63;;;4.78;;
63089;SDS011;49174;43.198;27.824;2022-07-30T09:10:47;8.32;;;4.63;;
63089;SDS011;49174;43.198;27.824;2022-07-30T09:15:51;5.93;;;4.57;;
63089;SDS011;49174;43.198;27.824;2022-07-30T09:18:30;5.97;;;4.20;;
63089;SDS011;49174;43.198;27.824;2022-07-30T09:21:00;5.15;;;4.50;;
63089;SDS011;49174;43.198;27.824;2022-07-30T09:23:38;6.28;;;4.50;;
63089;SDS011;49174;43.198;27.824;2022-07-30T09:26:04;6.05;;;4.47;;
63089;SDS011;49174;43.198;27.824;2022-07-30T09:28:30;9.98;;;4.80;;
63089;SDS011;49174;43.198;27.824;2022-07-30T09:30:57;7.15;;;3.90;;
63089;SDS011;49174;43.198;27.824;2022-07-30T09:33:36;6.90;;;4.60;;
63089;SDS011;49174;43.198;27.824;2022-07-30T09:36:04;6.57;;;4.10;;
63089;SDS011;49174;43.198;27.824;2022-07-30T09:41:15;5.43;;;4.15;;
63089;SDS011;49174;43.198;27.824;2022-07-30T09:43:43;6.82;;;3.78;;
63089;SDS011;49174;43.198;27.824;2022-07-30T09:46:11;7.55;;;4.10;;
63089;SDS011;49174;43.198;27.824;2022-07-30T09:48:37;6.43;;;4.00;;
63089;SDS011;49174;43.198;27.824;2022-07-30T09:51:02;5.93;;;3.88;;
63089;SDS011;49174;43.198;27.824;2022-07-30T09:53:28;4.32;;;3.70;;
63089;SDS011;49174;43.198;27.824;2022-07-30T09:55:55;5.75;;;3.58;;
63089;SDS011;49174;43.198;27.824;2022-07-30T09:58:22;5.03;;;3.78;;
63089;SDS011;49174;43.198;27.824;2022-07-30T10:00:47;4.22;;;3.83;;
63089;SDS011;49174;43.198;27.824;2022-07-30T10:03:21;6.17;;;4.33;;
63089;SDS011;49174;43.198;27.824;2022-07-30T10:05:52;5.95;;;4.20;;
63089;SDS011;49174;43.198;27.824;2022-07-30T10:08:20;13.35;;;4.30;;
63089;SDS011;49174;43.198;27.824;2022-07-30T10:11:01;7.93;;;4.15;;
63089;SDS011;49174;43.198;27.824;2022-07-30T10:13:27;5.25;;;3.70;;
63089;SDS011;49174;43.198;27.824;2022-07-30T10:15:53;4.82;;;4.32;;
63089;SDS011;49174;43.198;27.824;2022-07-30T10:18:19;4.35;;;3.95;;
63089;SDS011;49174;43.198;27.824;2022-07-30T10:20:45;11.05;;;9.07;;
63089;SDS011;49174;43.198;27.824;2022-07-30T10:23:12;37.53;;;33.60;;
63089;SDS011;49174;43.198;27.824;2022-07-30T10:25:38;9.18;;;4.90;;
63089;SDS011;49174;43.198;27.824;2022-07-30T10:28:04;6.80;;;4.30;;
63089;SDS011;49174;43.198;27.824;2022-07-30T10:30:31;6.97;;;4.55;;
63089;SDS011;49174;43.198;27.824;2022-07-30T10:32:58;6.55;;;4.38;;
63089;SDS011;49174;43.198;27.824;2022-07-30T10:35:25;6.38;;;4.30;;
63089;SDS011;49174;43.198;27.824;2022-07-30T10:37:51;9.63;;;3.95;;
63089;SDS011;49174;43.198;27.824;2022-07-30T10:40:20;4.95;;;3.78;;
63089;SDS011;49174;43.198;27.824;2022-07-30T10:43:16;6.50;;;4.20;;
63089;SDS011;49174;43.198;27.824;2022-07-30T10:48:51;6.47;;;4.40;;
63089;SDS011;49174;43.198;27.824;2022-07-30T10:51:16;4.95;;;3.83;;
63089;SDS011;49174;43.198;27.824;2022-07-30T10:53:43;7.93;;;4.47;;
63089;SDS011;49174;43.198;27.824;2022-07-30T10:56:11;9.75;;;4.30;;
63089;SDS011;49174;43.198;27.824;2022-07-30T11:01:23;5.60;;;3.95;;
63089;SDS011;49174;43.198;27.824;2022-07-30T11:06:43;6.85;;;3.80;;
63089;SDS011;49174;43.198;27.824;2022-07-30T11:09:42;6.80;;;3.88;;
63089;SDS011;49174;43.198;27.824;2022-07-30T11:12:03;8.13;;;4.10;;
63089;SDS011;49174;43.198;27.824;2022-07-30T11:15:13;6.32;;;3.80;;
63089;SDS011;49174;43.198;27.824;2022-07-30T11:17:22;4.95;;;4.32;;
63089;SDS011;49174;43.198;27.824;2022-07-30T11:22:33;8.95;;;4.57;;
63089;SDS011;49174;43.198;27.824;2022-07-30T11:25:06;5.57;;;4.43;;
63089;SDS011;49174;43.198;27.824;2022-07-30T11:27:37;5.32;;;3.80;;
63089;SDS011;49174;43.198;27.824;2022-07-30T11:32:41;5.28;;;4.00;;
63089;SDS011;49174;43.198;27.824;2022-07-30T11:35:21;7.78;;;4.05;;
63089;SDS011;49174;43.198;27.824;2022-07-30T11:45:48;7.35;;;4.15;;
63089;SDS011;49174;43.198;27.824;2022-07-30T11:48:16;5.35;;;3.92;;
63089;SDS011;49174;43.198;27.824;2022-07-30T11:50:44;4.82;;;3.75;;
63089;SDS011;49174;43.198;27.824;2022-07-30T11:53:16;5.80;;;3.80;;
63089;SDS011;49174;43.198;27.824;2022-07-30T11:55:54;6.78;;;4.53;;
63089;SDS011;49174;43.198;27.824;2022-07-30T11:58:23;6.20;;;4.20;;
63089;SDS011;49174;43.198;27.824;2022-07-30T12:01:16;5.72;;;3.90;;
63089;SDS011;49174;43.198;27.824;2022-07-30T12:03:42;5.32;;;4.03;;
63089;SDS011;49174;43.198;27.824;2022-07-30T12:06:10;5.85;;;4.45;;
63089;SDS011;49174;43.198;27.824;2022-07-30T12:08:44;5.35;;;3.92;;
63089;SDS011;49174;43.198;27.824;2022-07-30T12:11:11;6.60;;;3.75;;
63089;SDS011;49174;43.198;27.824;2022-07-30T12:13:39;6.03;;;3.80;;
63089;SDS011;49174;43.198;27.824;2022-07-30T12:16:11;4.80;;;4.18;;
63089;SDS011;49174;43.198;27.824;2022-07-30T12:18:40;7.38;;;4.30;;
63089;SDS011;49174;43.198;27.824;2022-07-30T12:21:07;5.32;;;4.05;;
63089;SDS011;49174;43.198;27.824;2022-07-30T12:23:37;5.28;;;3.90;;
63089;SDS011;49174;43.198;27.824;2022-07-30T12:26:03;5.65;;;3.97;;
63089;SDS011;49174;43.198;27.824;2022-07-30T12:28:30;4.95;;;4.00;;
63089;SDS011;49174;43.198;27.824;2022-07-30T12:30:58;9.20;;;5.57;;
63089;SDS011;49174;43.198;27.824;2022-07-30T12:33:26;6.50;;;3.95;;
63089;SDS011;49174;43.198;27.824;2022-07-30T12:35:56;6.85;;;4.00;;
63089;SDS011;49174;43.198;27.824;2022-07-30T12:38:23;4.30;;;3.40;;
63089;SDS011;49174;43.198;27.824;2022-07-30T12:43:16;7.20;;;4.55;;
63089;SDS011;49174;43.198;27.824;2022-07-30T12:45:41;5.63;;;4.32;;
63089;SDS011;49174;43.198;27.824;2022-07-30T12:48:10;10.68;;;5.13;;
63089;SDS011;49174;43.198;27.824;2022-07-30T12:50:36;9.98;;;4.10;;
63089;SDS011;49174;43.198;27.824;2022-07-30T12:53:02;6.57;;;3.78;;
63089;SDS011;49174;43.198;27.824;2022-07-30T12:55:31;7.03;;;3.80;;
63089;SDS011;49174;43.198;27.824;2022-07-30T12:57:59;6.20;;;4.13;;
63089;SDS011;49174;43.198;27.824;2022-07-30T13:00:28;24.67;;;19.02;;
63089;SDS011;49174;43.198;27.824;2022-07-30T13:03:00;11.40;;;10.23;;
63089;SDS011;49174;43.198;27.824;2022-07-30T13:05:45;4.95;;;4.00;;
63089;SDS011;49174;43.198;27.824;2022-07-30T13:08:11;7.50;;;4.30;;
63089;SDS011;49174;43.198;27.824;2022-07-30T13:10:37;7.55;;;4.18;;
63089;SDS011;49174;43.198;27.824;2022-07-30T13:13:03;6.57;;;4.50;;
63089;SDS011;49174;43.198;27.824;2022-07-30T13:15:28;15.45;;;13.20;;
63089;SDS011;49174;43.198;27.824;2022-07-30T13:17:54;11.07;;;9.88;;
63089;SDS011;49174;43.198;27.824;2022-07-30T13:20:20;5.93;;;4.72;;
63089;SDS011;49174;43.198;27.824;2022-07-30T13:22:46;8.25;;;4.95;;
63089;SDS011;49174;43.198;27.824;2022-07-30T13:25:11;5.90;;;4.22;;
63089;SDS011;49174;43.198;27.824;2022-07-30T13:27:37;6.78;;;4.32;;
63089;SDS011;49174;43.198;27.824;2022-07-30T13:30:03;6.93;;;4.25;;
63089;SDS011;49174;43.198;27.824;2022-07-30T13:32:29;7.55;;;5.10;;
63089;SDS011;49174;43.198;27.824;2022-07-30T13:34:55;6.25;;;4.78;;
63089;SDS011;49174;43.198;27.824;2022-07-30T13:37:21;7.43;;;5.35;;
63089;SDS011;49174;43.198;27.824;2022-07-30T13:39:47;10.32;;;4.68;;
63089;SDS011;49174;43.198;27.824;2022-07-30T13:42:13;8.57;;;4.97;;
63089;SDS011;49174;43.198;27.824;2022-07-30T13:44:39;6.80;;;4.85;;
63089;SDS011;49174;43.198;27.824;2022-07-30T13:47:04;8.10;;;4.78;;
63089;SDS011;49174;43.198;27.824;2022-07-30T13:49:35;7.03;;;4.13;;
63089;SDS011;49174;43.198;27.824;2022-07-30T13:52:03;7.07;;;5.57;;
63089;SDS011;49174;43.198;27.824;2022-07-30T13:54:28;7.90;;;4.65;;
63089;SDS011;49174;43.198;27.824;2022-07-30T13:56:54;6.68;;;4.90;;
63089;SDS011;49174;43.198;27.824;2022-07-30T13:59:20;7.75;;;4.85;;
63089;SDS011;49174;43.198;27.824;2022-07-30T14:01:45;8.95;;;5.60;;
63089;SDS011;49174;43.198;27.824;2022-07-30T14:04:11;7.60;;;5.20;;
63089;SDS011;49174;43.198;27.824;2022-07-30T14:06:37;7.15;;;4.90;;
63089;SDS011;49174;43.198;27.824;2022-07-30T14:09:02;6.63;;;4.80;;
63089;SDS011;49174;43.198;27.824;2022-07-30T14:11:29;5.75;;;4.78;;
63089;SDS011;49174;43.198;27.824;2022-07-30T14:13:55;5.53;;;4.93;;
63089;SDS011;49174;43.198;27.824;2022-07-30T14:16:20;9.45;;;5.05;;
63089;SDS011;49174;43.198;27.824;2022-07-30T14:18:46;8.68;;;5.15;;
63089;SDS011;49174;43.198;27.824;2022-07-30T14:21:12;7.85;;;5.18;;
63089;SDS011;49174;43.198;27.824;2022-07-30T14:23:37;9.95;;;5.55;;
63089;SDS011;49174;43.198;27.824;2022-07-30T14:26:06;12.02;;;5.78;;
63089;SDS011;49174;43.198;27.824;2022-07-30T14:28:32;11.80;;;5.00;;
63089;SDS011;49174;43.198;27.824;2022-07-30T14:30:57;5.53;;;4.95;;
63089;SDS011;49174;43.198;27.824;2022-07-30T14:33:23;6.93;;;5.07;;
63089;SDS011;49174;43.198;27.824;2022-07-30T14:35:48;8.30;;;5.75;;
63089;SDS011;49174;43.198;27.824;2022-07-30T14:38:14;6.28;;;4.93;;
63089;SDS011;49174;43.198;27.824;2022-07-30T14:40:40;7.25;;;5.60;;
63089;SDS011;49174;43.198;27.824;2022-07-30T14:43:05;6.75;;;5.07;;
63089;SDS011;49174;43.198;27.824;2022-07-30T14:45:31;7.63;;;4.97;;
63089;SDS011;49174;43.198;27.824;2022-07-30T14:47:57;7.75;;;5.90;;
63089;SDS011;49174;43.198;27.824;2022-07-30T14:50:23;8.95;;;5.22;;
63089;SDS011;49174;43.198;27.824;2022-07-30T14:52:48;10.20;;;5.50;;
63089;SDS011;49174;43.198;27.824;2022-07-30T14:55:14;7.05;;;4.93;;
63089;SDS011;49174;43.198;27.824;2022-07-30T14:57:40;6.90;;;5.10;;
63089;SDS011;49174;43.198;27.824;2022-07-30T15:00:07;10.18;;;5.28;;
63089;SDS011;49174;43.198;27.824;2022-07-30T15:02:35;9.27;;;5.55;;
63089;SDS011;49174;43.198;27.824;2022-07-30T15:05:01;6.93;;;5.60;;
63089;SDS011;49174;43.198;27.824;2022-07-30T15:07:27;7.95;;;5.35;;
63089;SDS011;49174;43.198;27.824;2022-07-30T15:09:53;8.48;;;5.40;;
63089;SDS011;49174;43.198;27.824;2022-07-30T15:12:19;15.38;;;13.52;;
63089;SDS011;49174;43.198;27.824;2022-07-30T15:14:45;17.55;;;15.20;;
63089;SDS011;49174;43.198;27.824;2022-07-30T15:17:13;6.07;;;5.20;;
63089;SDS011;49174;43.198;27.824;2022-07-30T15:19:38;7.90;;;5.07;;
63089;SDS011;49174;43.198;27.824;2022-07-30T15:22:04;6.43;;;5.18;;
63089;SDS011;49174;43.198;27.824;2022-07-30T15:24:30;6.13;;;5.15;;
63089;SDS011;49174;43.198;27.824;2022-07-30T15:26:56;7.70;;;5.78;;